sensor_id;sensor_type;location;lat;lon;timestamp;temperature;humidity
10300;DHT22;5195;48.562;9.192;2023-09-07T00:01:00;21.50;49.20
10300;DHT22;5195;48.562;9.192;2023-09-07T00:03:29;21.70;49.00
10300;DHT22;5195;48.562;9.192;2023-09-07T00:05:54;21.80;48.30
10300;DHT22;5195;48.562;9.192;2023-09-07T00:08:20;21.50;48.40
10300;DHT22;5195;48.562;9.192;2023-09-07T00:10:45;21.50;49.60
10300;DHT22;5195;48.562;9.192;2023-09-07T00:13:11;21.70;48.50
10300;DHT22;5195;48.562;9.192;2023-09-07T00:15:37;21.60;48.80
10300;DHT22;5195;48.562;9.192;2023-09-07T00:18:02;21.60;48.80
10300;DHT22;5195;48.562;9.192;2023-09-07T00:20:28;21.40;49.00
10300;DHT22;5195;48.562;9.192;2023-09-07T00:22:53;21.00;49.20
10300;DHT22;5195;48.562;9.192;2023-09-07T00:25:19;21.00;49.30
10300;DHT22;5195;48.562;9.192;2023-09-07T00:27:44;20.90;49.50
10300;DHT22;5195;48.562;9.192;2023-09-07T00:30:10;21.00;50.40
10300;DHT22;5195;48.562;9.192;2023-09-07T00:32:36;21.20;50.00
10300;DHT22;5195;48.562;9.192;2023-09-07T00:35:01;21.50;49.40
10300;DHT22;5195;48.562;9.192;2023-09-07T00:37:26;21.70;49.10
10300;DHT22;5195;48.562;9.192;2023-09-07T00:39:52;21.50;49.40
10300;DHT22;5195;48.562;9.192;2023-09-07T00:42:18;21.40;49.90
10300;DHT22;5195;48.562;9.192;2023-09-07T00:44:43;21.20;49.90
10300;DHT22;5195;48.562;9.192;2023-09-07T00:47:09;21.30;50.40
10300;DHT22;5195;48.562;9.192;2023-09-07T00:49:34;21.20;50.20
10300;DHT22;5195;48.562;9.192;2023-09-07T00:52:00;20.90;50.30
10300;DHT22;5195;48.562;9.192;2023-09-07T00:54:25;20.60;50.50
10300;DHT22;5195;48.562;9.192;2023-09-07T00:56:51;20.80;51.30
10300;DHT22;5195;48.562;9.192;2023-09-07T00:59:16;20.80;50.80
10300;DHT22;5195;48.562;9.192;2023-09-07T01:01:42;20.90;50.80
10300;DHT22;5195;48.562;9.192;2023-09-07T01:04:08;20.80;50.50
10300;DHT22;5195;48.562;9.192;2023-09-07T01:06:35;20.90;49.70
10300;DHT22;5195;48.562;9.192;2023-09-07T01:09:00;21.10;50.00
10300;DHT22;5195;48.562;9.192;2023-09-07T01:11:24;21.30;49.90
10300;DHT22;5195;48.562;9.192;2023-09-07T01:13:50;21.50;48.90
10300;DHT22;5195;48.562;9.192;2023-09-07T01:16:15;21.20;49.30
10300;DHT22;5195;48.562;9.192;2023-09-07T01:18:41;21.20;50.20
10300;DHT22;5195;48.562;9.192;2023-09-07T01:21:08;21.40;49.90
10300;DHT22;5195;48.562;9.192;2023-09-07T01:23:36;21.60;50.00
10300;DHT22;5195;48.562;9.192;2023-09-07T01:26:02;21.30;49.70
10300;DHT22;5195;48.562;9.192;2023-09-07T01:28:27;20.80;50.10
10300;DHT22;5195;48.562;9.192;2023-09-07T01:30:53;20.50;50.70
10300;DHT22;5195;48.562;9.192;2023-09-07T01:33:18;20.60;50.30
10300;DHT22;5195;48.562;9.192;2023-09-07T01:35:44;20.80;50.40
10300;DHT22;5195;48.562;9.192;2023-09-07T01:38:10;21.00;50.50
10300;DHT22;5195;48.562;9.192;2023-09-07T01:40:35;20.80;50.50
10300;DHT22;5195;48.562;9.192;2023-09-07T01:43:01;20.40;50.70
10300;DHT22;5195;48.562;9.192;2023-09-07T01:45:26;20.50;51.40
10300;DHT22;5195;48.562;9.192;2023-09-07T01:47:52;20.40;51.30
10300;DHT22;5195;48.562;9.192;2023-09-07T01:50:18;20.50;51.40
10300;DHT22;5195;48.562;9.192;2023-09-07T01:52:48;20.80;50.40
10300;DHT22;5195;48.562;9.192;2023-09-07T01:55:13;21.00;49.60
10300;DHT22;5195;48.562;9.192;2023-09-07T01:57:39;21.10;50.30
10300;DHT22;5195;48.562;9.192;2023-09-07T02:00:05;20.80;50.30
10300;DHT22;5195;48.562;9.192;2023-09-07T02:02:30;20.80;50.80
10300;DHT22;5195;48.562;9.192;2023-09-07T02:04:56;21.00;50.30
10300;DHT22;5195;48.562;9.192;2023-09-07T02:07:21;21.20;50.00
10300;DHT22;5195;48.562;9.192;2023-09-07T02:09:47;20.90;49.90
10300;DHT22;5195;48.562;9.192;2023-09-07T02:12:12;20.50;50.30
10300;DHT22;5195;48.562;9.192;2023-09-07T02:14:38;20.60;49.80
10300;DHT22;5195;48.562;9.192;2023-09-07T02:17:03;20.70;49.90
10300;DHT22;5195;48.562;9.192;2023-09-07T02:19:32;20.80;50.00
10300;DHT22;5195;48.562;9.192;2023-09-07T02:21:58;20.40;49.90
10300;DHT22;5195;48.562;9.192;2023-09-07T02:24:23;20.00;50.60
10300;DHT22;5195;48.562;9.192;2023-09-07T02:26:49;20.00;50.10
10300;DHT22;5195;48.562;9.192;2023-09-07T02:29:14;20.30;52.10
10300;DHT22;5195;48.562;9.192;2023-09-07T02:31:40;20.50;50.20
10300;DHT22;5195;48.562;9.192;2023-09-07T02:34:06;20.20;50.50
10300;DHT22;5195;48.562;9.192;2023-09-07T02:36:31;19.90;51.20
10300;DHT22;5195;48.562;9.192;2023-09-07T02:38:57;20.00;51.60
10300;DHT22;5195;48.562;9.192;2023-09-07T02:41:22;19.90;51.40
10300;DHT22;5195;48.562;9.192;2023-09-07T02:43:48;19.70;51.60
10300;DHT22;5195;48.562;9.192;2023-09-07T02:46:13;19.50;51.80
10300;DHT22;5195;48.562;9.192;2023-09-07T02:48:39;19.70;52.00
10300;DHT22;5195;48.562;9.192;2023-09-07T02:51:04;20.10;51.10
10300;DHT22;5195;48.562;9.192;2023-09-07T02:53:30;20.00;51.00
10300;DHT22;5195;48.562;9.192;2023-09-07T02:55:55;20.00;51.00
10300;DHT22;5195;48.562;9.192;2023-09-07T02:58:22;19.90;51.00
10300;DHT22;5195;48.562;9.192;2023-09-07T03:00:47;19.50;51.40
10300;DHT22;5195;48.562;9.192;2023-09-07T03:03:12;19.30;51.90
10300;DHT22;5195;48.562;9.192;2023-09-07T03:05:42;19.00;52.20
10300;DHT22;5195;48.562;9.192;2023-09-07T03:08:07;18.80;52.50
10300;DHT22;5195;48.562;9.192;2023-09-07T03:10:32;18.70;52.70
10300;DHT22;5195;48.562;9.192;2023-09-07T03:12:58;18.60;52.80
10300;DHT22;5195;48.562;9.192;2023-09-07T03:15:23;18.90;53.60
10300;DHT22;5195;48.562;9.192;2023-09-07T03:17:49;19.30;52.60
10300;DHT22;5195;48.562;9.192;2023-09-07T03:20:14;19.70;51.60
10300;DHT22;5195;48.562;9.192;2023-09-07T03:22:41;19.50;51.40
10300;DHT22;5195;48.562;9.192;2023-09-07T03:25:06;19.10;51.90
10300;DHT22;5195;48.562;9.192;2023-09-07T03:27:31;18.90;52.50
10300;DHT22;5195;48.562;9.192;2023-09-07T03:29:57;19.00;52.20
10300;DHT22;5195;48.562;9.192;2023-09-07T03:32:23;19.30;52.30
10300;DHT22;5195;48.562;9.192;2023-09-07T03:34:48;19.60;51.20
10300;DHT22;5195;48.562;9.192;2023-09-07T03:37:14;19.40;51.40
10300;DHT22;5195;48.562;9.192;2023-09-07T03:39:39;19.00;52.20
10300;DHT22;5195;48.562;9.192;2023-09-07T03:42:05;18.70;52.70
10300;DHT22;5195;48.562;9.192;2023-09-07T03:44:30;18.90;52.30
10300;DHT22;5195;48.562;9.192;2023-09-07T03:46:56;19.30;52.60
10300;DHT22;5195;48.562;9.192;2023-09-07T03:49:21;19.50;52.00
10300;DHT22;5195;48.562;9.192;2023-09-07T03:51:47;19.80;51.40
10300;DHT22;5195;48.562;9.192;2023-09-07T03:54:13;19.60;51.50
10300;DHT22;5195;48.562;9.192;2023-09-07T03:56:38;19.20;51.80
10300;DHT22;5195;48.562;9.192;2023-09-07T03:59:04;18.90;52.20
10300;DHT22;5195;48.562;9.192;2023-09-07T04:01:29;19.10;52.70
10300;DHT22;5195;48.562;9.192;2023-09-07T04:03:55;19.40;52.10
10300;DHT22;5195;48.562;9.192;2023-09-07T04:06:20;19.70;51.60
10300;DHT22;5195;48.562;9.192;2023-09-07T04:08:46;19.90;50.80
10300;DHT22;5195;48.562;9.192;2023-09-07T04:11:11;20.10;50.50
10300;DHT22;5195;48.562;9.192;2023-09-07T04:13:37;20.20;50.30
10300;DHT22;5195;48.562;9.192;2023-09-07T04:16:03;19.90;50.50
10300;DHT22;5195;48.562;9.192;2023-09-07T04:18:28;19.50;51.10
10300;DHT22;5195;48.562;9.192;2023-09-07T04:21:04;19.60;51.60
10300;DHT22;5195;48.562;9.192;2023-09-07T04:23:21;19.40;51.50
10300;DHT22;5195;48.562;9.192;2023-09-07T04:25:46;19.10;51.80
10300;DHT22;5195;48.562;9.192;2023-09-07T04:28:12;19.20;51.50
10300;DHT22;5195;48.562;9.192;2023-09-07T04:30:38;19.10;51.60
10300;DHT22;5195;48.562;9.192;2023-09-07T04:33:03;18.80;52.10
10300;DHT22;5195;48.562;9.192;2023-09-07T04:35:29;18.50;52.40
10300;DHT22;5195;48.562;9.192;2023-09-07T04:37:54;18.70;52.80
10300;DHT22;5195;48.562;9.192;2023-09-07T04:40:20;19.10;51.70
10300;DHT22;5195;48.562;9.192;2023-09-07T04:42:45;19.30;51.20
10300;DHT22;5195;48.562;9.192;2023-09-07T04:45:11;19.10;51.90
10300;DHT22;5195;48.562;9.192;2023-09-07T04:47:37;18.70;51.80
10300;DHT22;5195;48.562;9.192;2023-09-07T04:50:02;18.40;52.40
10300;DHT22;5195;48.562;9.192;2023-09-07T04:52:28;18.60;53.00
10300;DHT22;5195;48.562;9.192;2023-09-07T04:54:53;18.50;52.80
10300;DHT22;5195;48.562;9.192;2023-09-07T04:57:19;18.40;53.30
10300;DHT22;5195;48.562;9.192;2023-09-07T04:59:45;18.60;53.20
10300;DHT22;5195;48.562;9.192;2023-09-07T05:02:10;18.60;53.00
10300;DHT22;5195;48.562;9.192;2023-09-07T05:04:36;18.80;53.00
10300;DHT22;5195;48.562;9.192;2023-09-07T05:07:02;19.10;52.30
10300;DHT22;5195;48.562;9.192;2023-09-07T05:09:27;19.40;51.60
10300;DHT22;5195;48.562;9.192;2023-09-07T05:11:53;19.60;51.30
10300;DHT22;5195;48.562;9.192;2023-09-07T05:14:19;19.80;50.10
10300;DHT22;5195;48.562;9.192;2023-09-07T05:16:44;19.50;50.40
10300;DHT22;5195;48.562;9.192;2023-09-07T05:19:16;19.50;51.30
10300;DHT22;5195;48.562;9.192;2023-09-07T05:21:43;19.30;51.50
10300;DHT22;5195;48.562;9.192;2023-09-07T05:24:12;19.00;52.10
10300;DHT22;5195;48.562;9.192;2023-09-07T05:26:35;19.10;52.50
10300;DHT22;5195;48.562;9.192;2023-09-07T05:29:01;19.50;51.30
10300;DHT22;5195;48.562;9.192;2023-09-07T05:31:27;19.70;50.70
10300;DHT22;5195;48.562;9.192;2023-09-07T05:33:52;19.80;50.90
10300;DHT22;5195;48.562;9.192;2023-09-07T05:36:18;19.60;51.20
10300;DHT22;5195;48.562;9.192;2023-09-07T05:38:43;19.20;51.80
10300;DHT22;5195;48.562;9.192;2023-09-07T05:41:09;19.00;52.50
10300;DHT22;5195;48.562;9.192;2023-09-07T05:43:35;19.10;53.00
10300;DHT22;5195;48.562;9.192;2023-09-07T05:46:00;19.10;52.70
10300;DHT22;5195;48.562;9.192;2023-09-07T05:48:26;19.00;53.10
10300;DHT22;5195;48.562;9.192;2023-09-07T05:50:51;19.10;54.00
10300;DHT22;5195;48.562;9.192;2023-09-07T05:53:18;19.30;54.10
10300;DHT22;5195;48.562;9.192;2023-09-07T05:55:42;20.00;52.90
10300;DHT22;5195;48.562;9.192;2023-09-07T05:58:09;20.80;52.00
10300;DHT22;5195;48.562;9.192;2023-09-07T06:00:35;21.00;50.90
10300;DHT22;5195;48.562;9.192;2023-09-07T06:03:02;21.00;51.00
10300;DHT22;5195;48.562;9.192;2023-09-07T06:05:29;20.90;51.00
10300;DHT22;5195;48.562;9.192;2023-09-07T06:07:55;21.20;50.20
10300;DHT22;5195;48.562;9.192;2023-09-07T06:10:20;21.40;50.40
10300;DHT22;5195;48.562;9.192;2023-09-07T06:12:47;21.80;49.40
10300;DHT22;5195;48.562;9.192;2023-09-07T06:15:13;22.40;48.10
10300;DHT22;5195;48.562;9.192;2023-09-07T06:17:39;22.70;48.40
10300;DHT22;5195;48.562;9.192;2023-09-07T06:20:05;22.80;48.50
10300;DHT22;5195;48.562;9.192;2023-09-07T06:22:30;23.20;46.80
10300;DHT22;5195;48.562;9.192;2023-09-07T06:25:16;23.60;45.80
10300;DHT22;5195;48.562;9.192;2023-09-07T06:27:45;23.90;45.00
10300;DHT22;5195;48.562;9.192;2023-09-07T06:30:12;24.20;44.70
10300;DHT22;5195;48.562;9.192;2023-09-07T06:32:37;24.10;45.00
10300;DHT22;5195;48.562;9.192;2023-09-07T06:35:03;23.80;45.40
10300;DHT22;5195;48.562;9.192;2023-09-07T06:40:20;23.60;45.20
10300;DHT22;5195;48.562;9.192;2023-09-07T06:42:49;23.40;45.90
10300;DHT22;5195;48.562;9.192;2023-09-07T06:45:22;23.20;46.30
10300;DHT22;5195;48.562;9.192;2023-09-07T06:47:56;23.50;45.80
10300;DHT22;5195;48.562;9.192;2023-09-07T06:50:24;23.60;45.90
10300;DHT22;5195;48.562;9.192;2023-09-07T06:52:59;23.90;45.30
10300;DHT22;5195;48.562;9.192;2023-09-07T06:55:34;24.40;44.70
10300;DHT22;5195;48.562;9.192;2023-09-07T06:58:17;24.80;43.90
10300;DHT22;5195;48.562;9.192;2023-09-07T07:01:07;25.30;43.40
10300;DHT22;5195;48.562;9.192;2023-09-07T07:03:38;25.60;42.60
10300;DHT22;5195;48.562;9.192;2023-09-07T07:06:08;25.60;43.00
10300;DHT22;5195;48.562;9.192;2023-09-07T07:08:44;25.40;43.50
10300;DHT22;5195;48.562;9.192;2023-09-07T07:11:19;25.30;43.90
10300;DHT22;5195;48.562;9.192;2023-09-07T07:13:45;25.20;44.10
10300;DHT22;5195;48.562;9.192;2023-09-07T07:16:25;25.40;43.40
10300;DHT22;5195;48.562;9.192;2023-09-07T07:19:21;25.50;43.50
10300;DHT22;5195;48.562;9.192;2023-09-07T07:22:09;25.80;43.10
10300;DHT22;5195;48.562;9.192;2023-09-07T07:24:41;26.30;42.40
10300;DHT22;5195;48.562;9.192;2023-09-07T07:27:12;26.20;42.60
10300;DHT22;5195;48.562;9.192;2023-09-07T07:29:42;26.30;42.00
10300;DHT22;5195;48.562;9.192;2023-09-07T07:32:09;26.40;42.50
10300;DHT22;5195;48.562;9.192;2023-09-07T07:34:37;26.60;41.80
10300;DHT22;5195;48.562;9.192;2023-09-07T07:37:06;26.70;42.10
10300;DHT22;5195;48.562;9.192;2023-09-07T07:39:35;26.90;41.40
10300;DHT22;5195;48.562;9.192;2023-09-07T07:42:01;27.40;40.60
10300;DHT22;5195;48.562;9.192;2023-09-07T07:44:27;27.70;40.10
10300;DHT22;5195;48.562;9.192;2023-09-07T07:46:52;27.80;40.40
10300;DHT22;5195;48.562;9.192;2023-09-07T07:49:18;27.60;40.70
10300;DHT22;5195;48.562;9.192;2023-09-07T07:51:43;27.40;41.00
10300;DHT22;5195;48.562;9.192;2023-09-07T07:54:09;27.60;40.20
10300;DHT22;5195;48.562;9.192;2023-09-07T07:56:35;27.70;40.40
10300;DHT22;5195;48.562;9.192;2023-09-07T07:59:01;28.00;39.90
10300;DHT22;5195;48.562;9.192;2023-09-07T08:01:26;28.00;40.00
10300;DHT22;5195;48.562;9.192;2023-09-07T08:03:53;27.90;40.30
10300;DHT22;5195;48.562;9.192;2023-09-07T08:06:19;28.10;39.50
10300;DHT22;5195;48.562;9.192;2023-09-07T08:08:44;28.10;39.80
10300;DHT22;5195;48.562;9.192;2023-09-07T08:11:10;28.00;40.10
10300;DHT22;5195;48.562;9.192;2023-09-07T08:13:35;28.20;39.70
10300;DHT22;5195;48.562;9.192;2023-09-07T08:16:01;28.20;39.60
10300;DHT22;5195;48.562;9.192;2023-09-07T08:18:26;28.40;39.60
10300;DHT22;5195;48.562;9.192;2023-09-07T08:20:52;28.50;39.40
10300;DHT22;5195;48.562;9.192;2023-09-07T08:23:17;28.40;39.90
10300;DHT22;5195;48.562;9.192;2023-09-07T08:25:43;28.30;39.80
10300;DHT22;5195;48.562;9.192;2023-09-07T08:28:09;28.30;39.20
10300;DHT22;5195;48.562;9.192;2023-09-07T08:30:49;28.50;39.20
10300;DHT22;5195;48.562;9.192;2023-09-07T08:33:16;28.70;39.70
10300;DHT22;5195;48.562;9.192;2023-09-07T08:35:43;28.80;39.50
10300;DHT22;5195;48.562;9.192;2023-09-07T08:38:10;28.90;39.20
10300;DHT22;5195;48.562;9.192;2023-09-07T08:40:35;28.60;39.50
10300;DHT22;5195;48.562;9.192;2023-09-07T08:43:03;28.40;40.10
10300;DHT22;5195;48.562;9.192;2023-09-07T08:45:27;28.20;40.40
10300;DHT22;5195;48.562;9.192;2023-09-07T08:47:52;28.00;40.60
10300;DHT22;5195;48.562;9.192;2023-09-07T08:50:18;28.20;40.80
10300;DHT22;5195;48.562;9.192;2023-09-07T08:52:43;28.20;40.70
10300;DHT22;5195;48.562;9.192;2023-09-07T08:55:09;28.10;41.00
10300;DHT22;5195;48.562;9.192;2023-09-07T08:57:35;28.00;41.20
10300;DHT22;5195;48.562;9.192;2023-09-07T09:00:00;27.90;41.40
10300;DHT22;5195;48.562;9.192;2023-09-07T09:02:26;27.90;41.60
10300;DHT22;5195;48.562;9.192;2023-09-07T09:04:52;27.90;41.60
10300;DHT22;5195;48.562;9.192;2023-09-07T09:07:19;28.00;41.60
10300;DHT22;5195;48.562;9.192;2023-09-07T09:09:44;28.00;41.60
10300;DHT22;5195;48.562;9.192;2023-09-07T09:12:11;28.40;41.20
10300;DHT22;5195;48.562;9.192;2023-09-07T09:14:36;28.70;40.80
10300;DHT22;5195;48.562;9.192;2023-09-07T09:17:01;28.60;40.40
10300;DHT22;5195;48.562;9.192;2023-09-07T09:19:33;28.50;40.60
10300;DHT22;5195;48.562;9.192;2023-09-07T09:21:59;28.80;40.70
10300;DHT22;5195;48.562;9.192;2023-09-07T09:24:24;28.90;40.30
10300;DHT22;5195;48.562;9.192;2023-09-07T09:26:50;28.80;40.30
10300;DHT22;5195;48.562;9.192;2023-09-07T09:29:15;29.10;39.90
10300;DHT22;5195;48.562;9.192;2023-09-07T09:31:41;29.10;39.60
10300;DHT22;5195;48.562;9.192;2023-09-07T09:34:07;29.40;39.10
10300;DHT22;5195;48.562;9.192;2023-09-07T09:36:33;29.40;39.30
10300;DHT22;5195;48.562;9.192;2023-09-07T09:38:58;29.20;39.60
10300;DHT22;5195;48.562;9.192;2023-09-07T09:41:23;29.40;39.60
10300;DHT22;5195;48.562;9.192;2023-09-07T09:43:49;29.50;39.30
10300;DHT22;5195;48.562;9.192;2023-09-07T09:46:16;29.40;39.20
10300;DHT22;5195;48.562;9.192;2023-09-07T09:48:43;29.30;39.40
10300;DHT22;5195;48.562;9.192;2023-09-07T09:51:08;29.50;39.10
10300;DHT22;5195;48.562;9.192;2023-09-07T09:53:34;29.90;38.60
10300;DHT22;5195;48.562;9.192;2023-09-07T09:55:59;30.20;37.90
10300;DHT22;5195;48.562;9.192;2023-09-07T09:58:25;30.50;37.70
10300;DHT22;5195;48.562;9.192;2023-09-07T10:00:55;30.40;37.90
10300;DHT22;5195;48.562;9.192;2023-09-07T10:03:25;30.40;38.70
10300;DHT22;5195;48.562;9.192;2023-09-07T10:05:49;30.60;37.70
10300;DHT22;5195;48.562;9.192;2023-09-07T10:08:16;30.70;37.30
10300;DHT22;5195;48.562;9.192;2023-09-07T10:10:41;30.50;37.30
10300;DHT22;5195;48.562;9.192;2023-09-07T10:13:06;30.20;38.10
10300;DHT22;5195;48.562;9.192;2023-09-07T10:15:31;30.00;38.80
10300;DHT22;5195;48.562;9.192;2023-09-07T10:20:58;29.70;39.20
10300;DHT22;5195;48.562;9.192;2023-09-07T10:23:21;29.90;38.90
10300;DHT22;5195;48.562;9.192;2023-09-07T10:25:50;30.30;38.80
10300;DHT22;5195;48.562;9.192;2023-09-07T10:28:25;30.30;38.60
10300;DHT22;5195;48.562;9.192;2023-09-07T10:33:33;29.90;38.70
10300;DHT22;5195;48.562;9.192;2023-09-07T10:35:55;30.00;39.00
10300;DHT22;5195;48.562;9.192;2023-09-07T10:38:20;30.20;38.80
10300;DHT22;5195;48.562;9.192;2023-09-07T10:40:47;30.50;37.80
10300;DHT22;5195;48.562;9.192;2023-09-07T10:43:11;30.70;37.80
10300;DHT22;5195;48.562;9.192;2023-09-07T10:45:37;30.80;37.60
10300;DHT22;5195;48.562;9.192;2023-09-07T10:48:03;30.70;37.60
10300;DHT22;5195;48.562;9.192;2023-09-07T10:50:31;30.70;38.10
10300;DHT22;5195;48.562;9.192;2023-09-07T10:52:56;30.80;37.20
10300;DHT22;5195;48.562;9.192;2023-09-07T10:55:22;30.70;37.50
10300;DHT22;5195;48.562;9.192;2023-09-07T10:57:52;30.50;37.90
10300;DHT22;5195;48.562;9.192;2023-09-07T11:00:29;30.30;38.00
10300;DHT22;5195;48.562;9.192;2023-09-07T11:02:55;30.40;37.90
10300;DHT22;5195;48.562;9.192;2023-09-07T11:05:20;30.60;38.00
10300;DHT22;5195;48.562;9.192;2023-09-07T11:07:46;30.60;37.90
10300;DHT22;5195;48.562;9.192;2023-09-07T11:10:11;30.80;37.60
10300;DHT22;5195;48.562;9.192;2023-09-07T11:12:38;31.00;37.90
10300;DHT22;5195;48.562;9.192;2023-09-07T11:15:03;31.10;38.20
10300;DHT22;5195;48.562;9.192;2023-09-07T11:17:28;31.10;38.40
10300;DHT22;5195;48.562;9.192;2023-09-07T11:19:54;31.10;38.20
10300;DHT22;5195;48.562;9.192;2023-09-07T11:22:20;31.20;38.20
10300;DHT22;5195;48.562;9.192;2023-09-07T11:24:45;31.40;37.80
10300;DHT22;5195;48.562;9.192;2023-09-07T11:27:11;31.60;37.50
10300;DHT22;5195;48.562;9.192;2023-09-07T11:29:36;31.70;36.90
10300;DHT22;5195;48.562;9.192;2023-09-07T11:32:09;31.60;37.00
10300;DHT22;5195;48.562;9.192;2023-09-07T11:34:34;31.50;37.30
10300;DHT22;5195;48.562;9.192;2023-09-07T11:37:01;31.30;37.50
10300;DHT22;5195;48.562;9.192;2023-09-07T11:39:25;31.30;37.80
10300;DHT22;5195;48.562;9.192;2023-09-07T11:41:52;31.20;37.80
10300;DHT22;5195;48.562;9.192;2023-09-07T11:44:18;31.20;38.10
10300;DHT22;5195;48.562;9.192;2023-09-07T11:46:44;31.10;38.10
10300;DHT22;5195;48.562;9.192;2023-09-07T11:49:12;31.00;38.40
10300;DHT22;5195;48.562;9.192;2023-09-07T11:51:38;30.90;38.60
10300;DHT22;5195;48.562;9.192;2023-09-07T11:54:04;30.80;38.80
10300;DHT22;5195;48.562;9.192;2023-09-07T11:56:29;31.00;38.40
10300;DHT22;5195;48.562;9.192;2023-09-07T11:58:54;31.20;38.20
10300;DHT22;5195;48.562;9.192;2023-09-07T12:01:20;31.10;38.20
10300;DHT22;5195;48.562;9.192;2023-09-07T12:03:46;31.20;38.50
10300;DHT22;5195;48.562;9.192;2023-09-07T12:06:11;31.40;37.90
10300;DHT22;5195;48.562;9.192;2023-09-07T12:08:37;31.30;38.00
10300;DHT22;5195;48.562;9.192;2023-09-07T12:11:02;31.10;38.60
10300;DHT22;5195;48.562;9.192;2023-09-07T12:13:28;30.90;38.70
10300;DHT22;5195;48.562;9.192;2023-09-07T12:15:54;31.00;39.00
10300;DHT22;5195;48.562;9.192;2023-09-07T12:18:19;31.10;38.80
10300;DHT22;5195;48.562;9.192;2023-09-07T12:20:45;31.20;38.70
10300;DHT22;5195;48.562;9.192;2023-09-07T12:23:34;31.10;38.70
10300;DHT22;5195;48.562;9.192;2023-09-07T12:26:10;31.00;39.10
10300;DHT22;5195;48.562;9.192;2023-09-07T12:28:36;31.10;38.90
10300;DHT22;5195;48.562;9.192;2023-09-07T12:31:01;31.30;38.30
10300;DHT22;5195;48.562;9.192;2023-09-07T12:33:27;31.60;38.30
10300;DHT22;5195;48.562;9.192;2023-09-07T12:35:52;31.70;38.00
10300;DHT22;5195;48.562;9.192;2023-09-07T12:38:18;31.80;37.70
10300;DHT22;5195;48.562;9.192;2023-09-07T12:40:44;32.00;37.80
10300;DHT22;5195;48.562;9.192;2023-09-07T12:43:09;31.80;37.80
10300;DHT22;5195;48.562;9.192;2023-09-07T12:45:35;31.70;37.20
10300;DHT22;5195;48.562;9.192;2023-09-07T12:48:00;31.80;37.20
10300;DHT22;5195;48.562;9.192;2023-09-07T12:50:26;31.60;37.20
10300;DHT22;5195;48.562;9.192;2023-09-07T12:52:51;31.30;37.60
10300;DHT22;5195;48.562;9.192;2023-09-07T12:55:17;31.20;37.90
10300;DHT22;5195;48.562;9.192;2023-09-07T12:57:42;31.40;38.60
10300;DHT22;5195;48.562;9.192;2023-09-07T13:00:08;31.40;38.20
10300;DHT22;5195;48.562;9.192;2023-09-07T13:02:34;31.40;37.70
10300;DHT22;5195;48.562;9.192;2023-09-07T13:04:59;31.30;37.70
10300;DHT22;5195;48.562;9.192;2023-09-07T13:07:25;31.40;38.30
10300;DHT22;5195;48.562;9.192;2023-09-07T13:09:50;31.60;37.50
10300;DHT22;5195;48.562;9.192;2023-09-07T13:12:17;31.60;37.40
10300;DHT22;5195;48.562;9.192;2023-09-07T13:14:43;31.40;37.40
10300;DHT22;5195;48.562;9.192;2023-09-07T13:17:12;31.20;37.60
10300;DHT22;5195;48.562;9.192;2023-09-07T13:19:34;31.30;37.60
10300;DHT22;5195;48.562;9.192;2023-09-07T13:22:00;31.50;37.00
10300;DHT22;5195;48.562;9.192;2023-09-07T13:24:25;31.70;37.30
10300;DHT22;5195;48.562;9.192;2023-09-07T13:26:51;31.70;37.20
10300;DHT22;5195;48.562;9.192;2023-09-07T13:29:16;31.70;36.60
10300;DHT22;5195;48.562;9.192;2023-09-07T13:31:42;31.80;36.40
10300;DHT22;5195;48.562;9.192;2023-09-07T13:34:07;31.90;36.10
10300;DHT22;5195;48.562;9.192;2023-09-07T13:36:33;32.00;36.70
10300;DHT22;5195;48.562;9.192;2023-09-07T13:38:58;32.20;36.30
10300;DHT22;5195;48.562;9.192;2023-09-07T13:41:24;32.20;35.70
10300;DHT22;5195;48.562;9.192;2023-09-07T13:43:50;32.30;35.80
10300;DHT22;5195;48.562;9.192;2023-09-07T13:46:15;32.40;35.70
10300;DHT22;5195;48.562;9.192;2023-09-07T13:48:41;32.20;35.60
10300;DHT22;5195;48.562;9.192;2023-09-07T13:51:07;32.10;35.70
10300;DHT22;5195;48.562;9.192;2023-09-07T13:53:32;31.80;35.80
10300;DHT22;5195;48.562;9.192;2023-09-07T13:55:57;31.90;36.20
10300;DHT22;5195;48.562;9.192;2023-09-07T13:58:23;31.70;36.10
10300;DHT22;5195;48.562;9.192;2023-09-07T14:00:48;31.80;35.70
10300;DHT22;5195;48.562;9.192;2023-09-07T14:03:14;31.60;35.90
10300;DHT22;5195;48.562;9.192;2023-09-07T14:05:40;31.70;36.00
10300;DHT22;5195;48.562;9.192;2023-09-07T14:08:05;31.90;35.00
10300;DHT22;5195;48.562;9.192;2023-09-07T14:10:31;31.70;35.30
10300;DHT22;5195;48.562;9.192;2023-09-07T14:12:56;31.50;35.80
10300;DHT22;5195;48.562;9.192;2023-09-07T14:15:22;31.50;35.40
10300;DHT22;5195;48.562;9.192;2023-09-07T14:17:47;31.40;35.50
10300;DHT22;5195;48.562;9.192;2023-09-07T14:20:13;31.30;35.80
10300;DHT22;5195;48.562;9.192;2023-09-07T14:22:39;31.10;36.00
10300;DHT22;5195;48.562;9.192;2023-09-07T14:25:04;30.90;36.10
10300;DHT22;5195;48.562;9.192;2023-09-07T14:27:30;30.70;36.20
10300;DHT22;5195;48.562;9.192;2023-09-07T14:29:55;31.00;35.80
10300;DHT22;5195;48.562;9.192;2023-09-07T14:32:21;31.00;35.70
10300;DHT22;5195;48.562;9.192;2023-09-07T14:34:46;31.20;35.70
10300;DHT22;5195;48.562;9.192;2023-09-07T14:37:12;31.20;35.60
10300;DHT22;5195;48.562;9.192;2023-09-07T14:39:38;31.30;35.50
10300;DHT22;5195;48.562;9.192;2023-09-07T14:42:03;31.60;35.20
10300;DHT22;5195;48.562;9.192;2023-09-07T14:44:29;31.80;34.80
10300;DHT22;5195;48.562;9.192;2023-09-07T14:46:54;31.70;34.80
10300;DHT22;5195;48.562;9.192;2023-09-07T14:49:20;31.70;34.30
10300;DHT22;5195;48.562;9.192;2023-09-07T14:51:45;31.60;34.70
10300;DHT22;5195;48.562;9.192;2023-09-07T14:54:11;31.30;35.10
10300;DHT22;5195;48.562;9.192;2023-09-07T14:56:37;31.10;35.40
10300;DHT22;5195;48.562;9.192;2023-09-07T14:59:02;30.90;35.70
10300;DHT22;5195;48.562;9.192;2023-09-07T15:01:28;31.10;36.10
10300;DHT22;5195;48.562;9.192;2023-09-07T15:03:53;31.40;35.80
10300;DHT22;5195;48.562;9.192;2023-09-07T15:06:19;31.30;35.80
10300;DHT22;5195;48.562;9.192;2023-09-07T15:08:44;31.40;35.80
10300;DHT22;5195;48.562;9.192;2023-09-07T15:11:11;31.70;35.80
10300;DHT22;5195;48.562;9.192;2023-09-07T15:13:39;31.80;35.30
10300;DHT22;5195;48.562;9.192;2023-09-07T15:16:05;31.70;35.40
10300;DHT22;5195;48.562;9.192;2023-09-07T15:18:30;31.40;35.60
10300;DHT22;5195;48.562;9.192;2023-09-07T15:20:56;31.20;35.90
10300;DHT22;5195;48.562;9.192;2023-09-07T15:23:22;31.30;35.90
10300;DHT22;5195;48.562;9.192;2023-09-07T15:25:47;31.50;35.00
10300;DHT22;5195;48.562;9.192;2023-09-07T15:28:13;31.70;35.30
10300;DHT22;5195;48.562;9.192;2023-09-07T15:30:38;31.60;35.40
10300;DHT22;5195;48.562;9.192;2023-09-07T15:33:04;31.20;35.60
10300;DHT22;5195;48.562;9.192;2023-09-07T15:35:29;31.00;36.10
10300;DHT22;5195;48.562;9.192;2023-09-07T15:37:55;31.10;36.30
10300;DHT22;5195;48.562;9.192;2023-09-07T15:40:22;31.30;35.90
10300;DHT22;5195;48.562;9.192;2023-09-07T15:42:47;31.30;35.80
10300;DHT22;5195;48.562;9.192;2023-09-07T15:45:13;31.00;36.00
10300;DHT22;5195;48.562;9.192;2023-09-07T15:47:38;31.10;36.00